Time;durP1;ratioP1;P1;durP2;ratioP2;P2;SDS_P1;SDS_P2;PMS_P1;PMS_P2;Temp;Humidity;BMP_temperature;BMP_pressure;BME280_temperature;BME280_humidity;BME280_pressure;Samples;Min_cycle;Max_cycle;Signal;HPM_P1;HPM_P2
2021/11/29 00:00:02;;;;;;;36.33;23.20;;;2.10;99.90;;;;;;5121335;28;20034;-87
2021/11/29 00:02:28;;;;;;;35.13;21.07;;;2.10;99.90;;;;;;5122342;28;20043;-87
2021/11/29 00:04:54;;;;;;;33.50;20.33;;;2.10;99.90;;;;;;5120457;28;20031;-86
2021/11/29 00:07:20;;;;;;;32.27;21.07;;;2.00;99.90;;;;;;5120853;28;20045;-87
2021/11/29 00:09:45;;;;;;;37.10;21.77;;;2.00;99.90;;;;;;5120267;28;20046;-86
2021/11/29 00:12:11;;;;;;;35.20;23.17;;;2.00;99.90;;;;;;5100449;28;20019;-84
2021/11/29 00:14:37;;;;;;;29.97;17.77;;;2.00;99.90;;;;;;5116688;28;20023;-86
2021/11/29 00:17:02;;;;;;;32.13;20.13;;;2.00;99.90;;;;;;5115594;28;20095;-86
2021/11/29 00:19:28;;;;;;;30.93;17.60;;;2.00;99.90;;;;;;5117225;28;20031;-84
2021/11/29 00:21:56;;;;;;;26.50;16.20;;;2.10;99.90;;;;;;5115558;28;20079;-85
2021/11/29 00:24:21;;;;;;;26.60;13.27;;;2.00;99.90;;;;;;5082846;28;20106;-84
2021/11/29 00:26:47;;;;;;;25.90;17.03;;;2.00;99.90;;;;;;5115480;28;20425;-83
2021/11/29 00:29:14;;;;;;;24.53;16.23;;;2.00;99.90;;;;;;5117125;28;20027;-84
2021/11/29 00:31:39;;;;;;;19.33;12.33;;;1.90;99.90;;;;;;5117336;28;20111;-85
2021/11/29 00:34:06;;;;;;;29.00;16.33;;;1.90;99.90;;;;;;5117735;28;20534;-84
2021/11/29 00:36:32;;;;;;;28.40;16.70;;;1.80;99.90;;;;;;5118069;28;20024;-85
2021/11/29 00:38:57;;;;;;;21.13;13.00;;;1.80;99.90;;;;;;5100374;28;20169;-85
2021/11/29 00:41:23;;;;;;;19.20;12.93;;;1.90;99.90;;;;;;5098739;28;20032;-85
2021/11/29 00:43:50;;;;;;;23.83;13.30;;;1.80;99.90;;;;;;5098645;28;20024;-83
2021/11/29 00:46:16;;;;;;;24.83;12.93;;;1.80;99.90;;;;;;5099437;28;20032;-83
2021/11/29 00:48:41;;;;;;;20.00;12.13;;;1.80;99.90;;;;;;5116827;28;20031;-84
2021/11/29 00:51:07;;;;;;;18.33;12.97;;;1.80;99.90;;;;;;5117978;28;20022;-83
2021/11/29 00:53:33;;;;;;;19.23;11.73;;;1.80;99.90;;;;;;5119445;28;20027;-83
2021/11/29 00:55:59;;;;;;;18.87;11.67;;;1.80;99.90;;;;;;5127396;28;20011;-83
2021/11/29 00:58:24;;;;;;;16.63;10.90;;;1.80;99.90;;;;;;5131577;28;20467;-84
2021/11/29 01:00:50;;;;;;;16.37;11.07;;;1.80;99.90;;;;;;5133339;28;20031;-80
2021/11/29 01:03:16;;;;;;;16.30;11.00;;;1.80;99.90;;;;;;5134811;28;20084;-83
2021/11/29 01:05:41;;;;;;;17.10;12.17;;;1.80;99.90;;;;;;5118666;28;20028;-82
2021/11/29 01:08:07;;;;;;;21.07;12.00;;;1.80;99.90;;;;;;5118491;28;20023;-83
2021/11/29 01:10:33;;;;;;;15.57;10.43;;;1.80;99.90;;;;;;5118946;28;20023;-83
2021/11/29 01:12:59;;;;;;;18.73;9.23;;;1.80;99.90;;;;;;5136205;28;20024;-82
2021/11/29 01:15:32;;;;;;;13.40;7.93;;;1.80;99.90;;;;;;5135700;28;20029;-81
2021/11/29 01:18:02;;;;;;;12.65;7.78;;;1.80;99.90;;;;;;5136449;28;20028;-81
2021/11/29 01:20:29;;;;;;;16.63;10.03;;;1.70;99.90;;;;;;5118325;28;20019;-81
2021/11/29 01:22:55;;;;;;;16.53;9.13;;;1.80;99.90;;;;;;5133829;28;20083;-82
2021/11/29 01:25:20;;;;;;;16.93;9.03;;;1.80;99.90;;;;;;5128091;28;20031;-83
2021/11/29 01:27:46;;;;;;;16.03;9.07;;;1.80;99.90;;;;;;5097698;28;20596;-82
2021/11/29 01:30:12;;;;;;;18.50;8.67;;;1.80;99.90;;;;;;5116766;28;20042;-83
2021/11/29 01:32:37;;;;;;;12.87;9.37;;;1.90;99.90;;;;;;5114839;28;20058;-82
2021/11/29 01:35:03;;;;;;;17.83;7.87;;;1.90;99.90;;;;;;5114826;28;20048;-82
2021/11/29 01:37:29;;;;;;;17.10;9.50;;;1.90;99.90;;;;;;5115061;28;20365;-82
2021/11/29 01:39:55;;;;;;;19.47;10.33;;;2.00;99.90;;;;;;5096649;28;20031;-81
2021/11/29 01:42:20;;;;;;;16.77;9.07;;;2.20;99.90;;;;;;5113963;28;20536;-82
2021/11/29 01:44:46;;;;;;;14.17;7.33;;;2.30;99.90;;;;;;5096752;28;20081;-83
2021/11/29 01:47:12;;;;;;;13.83;7.33;;;2.40;99.90;;;;;;5113791;28;20467;-82
2021/11/29 01:49:38;;;;;;;9.80;6.73;;;2.50;99.90;;;;;;5118038;28;20424;-80
2021/11/29 01:52:05;;;;;;;13.93;7.83;;;2.40;99.90;;;;;;5120722;28;20043;-83
2021/11/29 01:54:31;;;;;;;9.37;5.57;;;2.50;99.90;;;;;;5101317;28;20027;-81
2021/11/29 01:56:56;;;;;;;11.30;7.20;;;2.60;99.90;;;;;;5117665;28;20077;-82
2021/11/29 01:59:22;;;;;;;11.67;6.37;;;2.70;99.90;;;;;;5082220;28;20035;-83
2021/11/29 02:01:48;;;;;;;12.97;5.40;;;2.70;99.90;;;;;;5115819;28;20539;-82
2021/11/29 02:04:14;;;;;;;10.37;5.77;;;2.70;99.90;;;;;;5116805;28;20032;-82
2021/11/29 02:06:41;;;;;;;6.17;4.43;;;2.70;99.90;;;;;;5117395;28;20012;-80
2021/11/29 02:09:10;;;;;;;11.73;6.37;;;2.70;99.90;;;;;;5099247;28;20119;-81
2021/11/29 02:11:37;;;;;;;9.27;5.33;;;2.70;99.90;;;;;;5117273;28;20022;-83
2021/11/29 02:14:03;;;;;;;10.23;6.10;;;2.80;99.90;;;;;;5099200;28;20027;-81
2021/11/29 02:16:30;;;;;;;7.87;5.40;;;2.80;99.90;;;;;;5117245;28;20034;-82
2021/11/29 02:18:56;;;;;;;8.13;5.00;;;2.90;99.90;;;;;;5118336;28;20096;-82
2021/11/29 02:21:25;;;;;;;8.90;4.53;;;3.00;99.90;;;;;;5116888;28;20088;-80
2021/11/29 02:23:54;;;;;;;7.77;4.70;;;3.00;99.90;;;;;;5120060;28;20062;-81
2021/11/29 02:26:23;;;;;;;6.50;3.80;;;3.10;99.90;;;;;;5121286;28;20024;-82
2021/11/29 02:28:56;;;;;;;8.83;3.60;;;3.10;99.90;;;;;;5124792;28;20028;-82
2021/11/29 02:31:25;;;;;;;6.33;4.00;;;3.10;99.90;;;;;;5130065;28;20100;-82
2021/11/29 02:33:51;;;;;;;6.00;3.50;;;3.10;99.90;;;;;;5132382;28;20079;-82
2021/11/29 02:36:17;;;;;;;12.10;3.77;;;3.20;99.90;;;;;;5133149;28;20040;-81
2021/11/29 02:38:44;;;;;;;6.07;3.43;;;3.20;99.90;;;;;;5132988;28;20049;-81
2021/11/29 02:41:10;;;;;;;4.57;2.70;;;3.20;99.90;;;;;;5134568;28;20031;-83
2021/11/29 02:43:36;;;;;;;3.87;2.57;;;3.10;99.90;;;;;;5130690;28;20023;-80
2021/11/29 02:46:02;;;;;;;4.60;2.23;;;3.00;99.90;;;;;;5111467;28;20028;-80
2021/11/29 02:48:44;;;;;;;4.23;1.90;;;2.90;99.90;;;;;;5127606;28;20032;-81
2021/11/29 02:51:24;;;;;;;5.23;2.40;;;2.80;99.90;;;;;;5127459;28;20035;-81
2021/11/29 02:53:53;;;;;;;6.03;2.10;;;2.70;99.90;;;;;;5125924;28;20039;-81
2021/11/29 02:56:19;;;;;;;6.67;2.00;;;2.60;99.90;;;;;;5121587;28;20099;-81
2021/11/29 02:58:45;;;;;;;4.27;2.10;;;2.50;99.90;;;;;;5116450;28;20039;-81
2021/11/29 03:01:11;;;;;;;5.27;1.63;;;2.50;99.90;;;;;;5117936;28;20111;-81
2021/11/29 03:03:51;;;;;;;4.70;2.03;;;2.50;99.90;;;;;;5118485;28;20019;-80
2021/11/29 03:06:17;;;;;;;4.47;2.00;;;2.50;99.90;;;;;;5120406;28;20039;-82
2021/11/29 03:08:43;;;;;;;3.00;1.80;;;2.50;99.90;;;;;;5119346;28;20016;-82
2021/11/29 03:11:09;;;;;;;6.83;1.87;;;2.40;99.90;;;;;;5107005;28;20077;-81
2021/11/29 03:13:35;;;;;;;5.47;1.90;;;2.40;99.90;;;;;;5100467;28;20028;-82
2021/11/29 03:16:01;;;;;;;3.63;1.87;;;2.40;99.90;;;;;;5116593;28;20114;-81
2021/11/29 03:18:31;;;;;;;5.37;2.23;;;2.40;99.90;;;;;;5116283;28;20045;-80
2021/11/29 03:20:57;;;;;;;6.80;1.90;;;2.40;99.90;;;;;;5116463;28;20072;-82
2021/11/29 03:23:23;;;;;;;3.33;1.50;;;2.40;99.90;;;;;;5098024;28;20543;-82
2021/11/29 03:25:49;;;;;;;6.20;2.10;;;2.30;99.90;;;;;;5115081;28;20028;-80
2021/11/29 03:28:15;;;;;;;5.57;2.07;;;2.30;99.90;;;;;;5098540;28;20031;-81
2021/11/29 03:30:41;;;;;;;2.63;1.70;;;2.30;99.90;;;;;;5114095;28;20391;-81
2021/11/29 03:33:07;;;;;;;4.90;1.60;;;2.30;99.90;;;;;;5116006;27;20063;-83
2021/11/29 03:35:35;;;;;;;5.07;1.67;;;2.20;99.90;;;;;;5097163;28;20050;-83
2021/11/29 03:38:06;;;;;;;4.23;1.93;;;2.20;99.90;;;;;;5114705;28;20028;-82
2021/11/29 03:40:33;;;;;;;3.40;1.30;;;2.10;99.90;;;;;;5115792;28;20104;-81
2021/11/29 03:42:59;;;;;;;3.53;1.77;;;2.00;99.90;;;;;;5113669;28;20031;-81
2021/11/29 03:45:25;;;;;;;4.87;2.40;;;1.90;99.90;;;;;;5115975;28;20088;-81
2021/11/29 03:47:51;;;;;;;8.17;2.33;;;1.90;99.90;;;;;;5097051;28;20424;-81
2021/11/29 03:50:17;;;;;;;5.07;2.60;;;1.90;99.90;;;;;;5114938;28;20539;-80
2021/11/29 03:52:43;;;;;;;12.57;3.00;;;1.90;99.90;;;;;;5097770;28;20047;-82
2021/11/29 03:55:08;;;;;;;6.30;3.77;;;1.90;99.90;;;;;;5097594;28;20495;-81
2021/11/29 03:57:34;;;;;;;5.87;3.97;;;1.80;99.90;;;;;;5114205;28;20467;-82
2021/11/29 04:00:00;;;;;;;10.27;4.53;;;1.90;99.90;;;;;;5114534;28;20023;-81
2021/11/29 04:02:26;;;;;;;5.87;4.20;;;1.90;99.90;;;;;;5113864;28;20030;-82
2021/11/29 04:04:52;;;;;;;20.17;5.20;;;1.90;99.90;;;;;;5080087;28;20016;-82
2021/11/29 04:07:17;;;;;;;8.83;3.67;;;1.90;99.90;;;;;;5096956;28;20035;-82
2021/11/29 04:09:43;;;;;;;19.83;4.00;;;1.90;99.90;;;;;;5114072;28;20042;-82
2021/11/29 04:12:09;;;;;;;8.80;4.00;;;2.00;99.90;;;;;;5114759;28;20031;-81
2021/11/29 04:14:36;;;;;;;36.17;4.30;;;2.00;99.90;;;;;;5097340;28;20055;-83
2021/11/29 04:17:01;;;;;;;6.60;3.23;;;2.00;99.90;;;;;;5114361;28;20027;-81
2021/11/29 04:19:27;;;;;;;19.57;5.67;;;1.90;99.90;;;;;;5115759;28;20427;-84
2021/11/29 04:21:54;;;;;;;44.40;6.33;;;1.90;99.90;;;;;;5114191;28;20436;-82
2021/11/29 04:24:22;;;;;;;12.90;3.93;;;2.00;99.90;;;;;;5116198;27;20098;-82
2021/11/29 04:26:52;;;;;;;76.37;7.60;;;2.00;99.90;;;;;;5115510;28;20023;-83
2021/11/29 04:29:23;;;;;;;5.37;4.40;;;2.00;99.90;;;;;;5116533;28;20431;-83
2021/11/29 04:31:48;;;;;;;4.83;3.67;;;2.00;99.90;;;;;;5114051;28;20028;-82
2021/11/29 04:34:14;;;;;;;24.53;4.57;;;2.00;99.90;;;;;;5097129;28;20043;-83
2021/11/29 04:36:40;;;;;;;17.30;4.47;;;1.90;99.90;;;;;;5114883;28;20051;-83
2021/11/29 04:39:06;;;;;;;6.83;4.53;;;1.90;99.90;;;;;;5099482;28;20039;-84
2021/11/29 04:41:32;;;;;;;12.83;5.80;;;1.90;99.90;;;;;;5098703;28;20084;-84
2021/11/29 04:43:58;;;;;;;8.93;4.33;;;1.90;99.90;;;;;;5116423;28;20115;-84
2021/11/29 04:46:24;;;;;;;13.20;4.57;;;2.00;99.90;;;;;;5098580;28;20063;-85
2021/11/29 04:48:49;;;;;;;8.77;4.60;;;2.00;99.90;;;;;;5116607;28;20030;-86
2021/11/29 04:51:15;;;;;;;7.13;4.13;;;2.00;99.90;;;;;;5099785;28;20020;-81
2021/11/29 04:53:42;;;;;;;64.43;6.47;;;2.00;99.90;;;;;;5100110;28;20027;-85
2021/11/29 04:56:07;;;;;;;7.07;5.00;;;2.00;99.90;;;;;;5117876;28;20482;-84
2021/11/29 04:58:33;;;;;;;9.93;5.30;;;2.10;99.90;;;;;;5119430;28;20114;-85
2021/11/29 05:00:59;;;;;;;7.87;5.27;;;2.00;99.90;;;;;;5118301;28;20459;-85
2021/11/29 05:03:25;;;;;;;8.87;6.90;;;2.10;99.90;;;;;;5085653;28;20031;-85
2021/11/29 05:05:50;;;;;;;24.63;5.83;;;2.10;99.90;;;;;;5104285;28;20379;-84
2021/11/29 05:08:16;;;;;;;8.47;4.90;;;2.20;99.90;;;;;;5118251;28;20391;-86
2021/11/29 05:10:42;;;;;;;26.30;6.00;;;2.20;99.90;;;;;;5119104;28;20157;-86
2021/11/29 05:13:09;;;;;;;7.60;5.33;;;2.30;99.90;;;;;;5085583;28;20181;-87
2021/11/29 05:15:34;;;;;;;9.37;5.67;;;2.40;99.90;;;;;;5120353;28;20062;-87
2021/11/29 05:18:00;;;;;;;9.63;4.93;;;2.40;99.90;;;;;;5123236;28;20077;-85
2021/11/29 05:20:26;;;;;;;24.90;5.13;;;2.40;99.90;;;;;;5104790;28;20043;-88
2021/11/29 05:22:51;;;;;;;9.57;3.80;;;2.40;99.90;;;;;;5108441;28;20036;-88
2021/11/29 05:25:19;;;;;;;10.87;4.43;;;2.40;99.90;;;;;;5130841;28;20035;-89
2021/11/29 05:27:45;;;;;;;5.30;3.90;;;2.30;99.90;;;;;;5095254;28;20027;-88
2021/11/29 05:30:12;;;;;;;5.77;4.07;;;2.30;99.90;;;;;;5128786;28;20028;-89
2021/11/29 05:32:37;;;;;;;5.83;4.00;;;2.20;99.90;;;;;;5129754;28;20019;-90
2021/11/29 05:35:04;;;;;;;9.07;4.37;;;2.30;99.90;;;;;;5132312;28;20053;-90
2021/11/29 05:37:30;;;;;;;7.03;4.57;;;2.20;99.90;;;;;;5130740;28;20044;-91
2021/11/29 05:39:55;;;;;;;61.53;5.37;;;2.20;99.90;;;;;;5096681;28;20020;-89
2021/11/29 05:42:21;;;;;;;10.87;4.73;;;2.10;99.90;;;;;;5114515;28;20095;-91
2021/11/29 05:44:50;;;;;;;3.93;3.57;;;2.20;99.90;;;;;;5130959;28;20043;-90
2021/11/29 05:47:21;;;;;;;5.57;3.80;;;2.10;99.90;;;;;;5114734;28;20023;-91
2021/11/29 05:49:48;;;;;;;5.90;4.13;;;2.10;99.90;;;;;;5131598;28;20027;-91
2021/11/29 05:52:14;;;;;;;6.63;3.93;;;2.10;99.90;;;;;;5131781;28;20109;-91
2021/11/29 05:54:46;;;;;;;4.97;4.03;;;2.00;99.90;;;;;;5133190;28;20072;-91
2021/11/29 05:57:13;;;;;;;7.00;4.70;;;2.00;99.90;;;;;;5133669;28;20047;-93
2021/11/29 05:59:39;;;;;;;7.23;4.37;;;2.00;99.90;;;;;;5132615;28;20027;-91
2021/11/29 06:02:05;;;;;;;7.67;3.97;;;2.00;99.90;;;;;;5109744;28;20051;-92
2021/11/29 06:04:30;;;;;;;7.73;4.17;;;2.00;99.90;;;;;;5119393;28;20544;-90
2021/11/29 06:06:56;;;;;;;10.47;4.30;;;1.90;99.90;;;;;;5118274;28;20032;-90
2021/11/29 06:09:22;;;;;;;5.60;4.23;;;2.00;99.90;;;;;;5119610;28;20042;-90
2021/11/29 06:11:47;;;;;;;8.53;4.70;;;2.00;99.90;;;;;;5120181;28;20126;-89
2021/11/29 06:14:13;;;;;;;7.33;4.97;;;2.10;99.90;;;;;;5117986;28;20028;-86
2021/11/29 06:16:39;;;;;;;5.77;4.33;;;2.00;99.90;;;;;;5117545;28;20126;-88
2021/11/29 06:19:04;;;;;;;6.87;4.33;;;2.00;99.90;;;;;;5117358;28;20020;-89
2021/11/29 06:21:30;;;;;;;7.20;4.00;;;2.00;99.90;;;;;;5117469;28;20066;-86
2021/11/29 06:23:56;;;;;;;8.97;4.07;;;2.00;99.90;;;;;;5115712;28;20027;-85
2021/11/29 06:26:22;;;;;;;7.20;3.10;;;2.00;99.90;;;;;;5117287;28;20023;-86
2021/11/29 06:28:48;;;;;;;3.30;3.00;;;2.00;99.90;;;;;;5115660;28;20437;-80
2021/11/29 06:31:14;;;;;;;3.93;3.00;;;2.10;99.90;;;;;;5115876;28;20031;-85
2021/11/29 06:33:39;;;;;;;4.43;3.00;;;2.10;99.90;;;;;;5116647;28;20027;-85
2021/11/29 06:36:07;;;;;;;4.43;2.70;;;2.10;99.90;;;;;;5099150;28;20055;-87
2021/11/29 06:38:33;;;;;;;4.70;3.20;;;2.10;99.90;;;;;;5116310;28;20031;-85
2021/11/29 06:41:00;;;;;;;8.53;2.67;;;2.10;99.90;;;;;;5116686;28;20042;-87
2021/11/29 06:43:26;;;;;;;12.00;3.67;;;2.10;99.90;;;;;;5120174;28;20032;-86
2021/11/29 06:45:53;;;;;;;6.17;2.97;;;2.10;99.90;;;;;;5118671;28;20512;-83
2021/11/29 06:48:20;;;;;;;10.23;2.87;;;2.20;99.90;;;;;;5100974;28;20032;-85
2021/11/29 06:50:46;;;;;;;6.43;2.70;;;2.20;99.90;;;;;;5116144;28;20033;-83
2021/11/29 06:53:12;;;;;;;5.70;2.97;;;2.20;99.90;;;;;;5099911;28;20031;-85
2021/11/29 06:55:38;;;;;;;6.67;2.50;;;2.20;99.90;;;;;;5118410;28;20023;-84
2021/11/29 06:58:04;;;;;;;4.57;1.87;;;2.20;99.90;;;;;;5105872;28;20059;-85
2021/11/29 07:00:31;;;;;;;4.10;2.10;;;2.20;99.90;;;;;;5126342;28;20031;-86
2021/11/29 07:02:57;;;;;;;4.97;2.60;;;2.20;99.90;;;;;;5132801;28;20031;-84
2021/11/29 07:05:25;;;;;;;8.80;2.33;;;2.30;99.90;;;;;;5131782;28;20038;-86
2021/11/29 07:07:53;;;;;;;6.87;1.80;;;2.30;99.90;;;;;;5095866;28;20099;-81
2021/11/29 07:10:20;;;;;;;2.90;1.77;;;2.40;99.90;;;;;;5128731;28;20039;-86
2021/11/29 07:12:47;;;;;;;2.93;1.63;;;2.40;99.90;;;;;;5124220;28;20030;-85
2021/11/29 07:15:14;;;;;;;4.20;1.90;;;2.40;99.90;;;;;;5121930;28;20020;-81
2021/11/29 07:17:41;;;;;;;3.57;1.93;;;2.30;99.90;;;;;;5084482;28;20032;-87
2021/11/29 07:20:08;;;;;;;5.73;2.07;;;2.40;99.90;;;;;;5118918;28;20455;-86
2021/11/29 07:22:33;;;;;;;3.90;1.80;;;2.40;99.90;;;;;;5103273;28;20468;-85
2021/11/29 07:25:03;;;;;;;3.53;2.23;;;2.40;99.90;;;;;;5122543;28;20087;-80
2021/11/29 07:27:29;;;;;;;3.43;2.00;;;2.50;99.90;;;;;;5119123;28;20035;-85
2021/11/29 07:29:54;;;;;;;4.43;2.50;;;2.50;99.90;;;;;;5102825;28;20035;-81
2021/11/29 07:32:22;;;;;;;5.20;2.80;;;2.50;99.90;;;;;;5103914;28;20109;-86
2021/11/29 07:34:48;;;;;;;4.23;3.13;;;2.50;99.90;;;;;;5102308;28;20037;-82
2021/11/29 07:37:19;;;;;;;7.07;4.17;;;2.50;99.90;;;;;;5119783;28;20063;-87
2021/11/29 07:39:46;;;;;;;5.20;3.47;;;2.50;99.90;;;;;;5119739;28;20042;-85
2021/11/29 07:42:12;;;;;;;5.33;4.13;;;2.50;99.90;;;;;;5118439;28;20055;-82
2021/11/29 07:44:38;;;;;;;6.77;5.27;;;2.60;99.90;;;;;;5084439;28;20020;-85
2021/11/29 07:47:04;;;;;;;11.80;5.53;;;2.70;99.90;;;;;;5117690;28;20118;-86
2021/11/29 07:49:30;;;;;;;10.23;5.93;;;3.00;99.90;;;;;;5101621;28;20028;-87
2021/11/29 07:51:55;;;;;;;11.33;7.63;;;3.30;99.90;;;;;;5100391;28;20028;-79
2021/11/29 07:54:21;;;;;;;10.77;6.40;;;3.60;99.90;;;;;;5119765;28;20030;-89
2021/11/29 07:56:47;;;;;;;12.00;7.37;;;3.90;99.90;;;;;;5118110;28;20106;-83
2021/11/29 07:59:13;;;;;;;15.43;8.43;;;4.10;99.90;;;;;;5118427;28;21902;-85
2021/11/29 08:01:38;;;;;;;10.27;7.43;;;4.50;99.90;;;;;;5116917;28;20028;-81
2021/11/29 08:04:05;;;;;;;12.97;7.40;;;4.70;99.90;;;;;;5116016;28;20105;-83
2021/11/29 08:06:30;;;;;;;13.03;9.03;;;4.80;99.90;;;;;;5116724;28;20072;-81
2021/11/29 08:08:56;;;;;;;12.07;8.60;;;4.90;99.90;;;;;;5096963;28;20029;-80
2021/11/29 08:11:23;;;;;;;12.50;7.83;;;4.90;99.90;;;;;;5099035;28;20031;-82
2021/11/29 08:13:48;;;;;;;17.20;11.87;;;4.60;99.40;;;;;;5118225;28;20024;-85
2021/11/29 08:16:14;;;;;;;14.90;10.23;;;4.40;99.50;;;;;;5117257;28;20035;-80
2021/11/29 08:18:40;;;;;;;15.47;9.63;;;4.50;99.90;;;;;;5115231;28;20019;-84
2021/11/29 08:21:06;;;;;;;13.53;9.80;;;5.00;99.90;;;;;;5114627;28;20118;-82
2021/11/29 08:23:32;;;;;;;16.83;9.07;;;5.50;99.90;;;;;;5113887;28;20054;-83
2021/11/29 08:25:58;;;;;;;14.83;10.77;;;6.00;99.10;;;;;;5114538;28;20019;-80
2021/11/29 08:28:25;;;;;;;18.63;10.07;;;6.60;98.00;;;;;;5113886;28;20027;-84
2021/11/29 08:30:50;;;;;;;10.47;7.63;;;7.00;96.90;;;;;;5114894;28;20032;-86
2021/11/29 08:33:16;;;;;;;12.43;7.87;;;7.50;94.80;;;;;;5114037;28;20028;-86
2021/11/29 08:35:44;;;;;;;20.33;10.43;;;7.90;92.80;;;;;;5096365;28;20052;-83
2021/11/29 08:38:10;;;;;;;16.23;9.17;;;7.80;91.00;;;;;;5114409;28;20024;-83
2021/11/29 08:40:36;;;;;;;21.60;11.80;;;7.70;90.40;;;;;;5113121;28;20383;-85
2021/11/29 08:43:11;;;;;;;14.13;9.43;;;7.50;90.30;;;;;;5112847;28;20055;-81
2021/11/29 08:45:38;;;;;;;17.33;8.73;;;7.40;90.10;;;;;;5114489;28;20053;-84
2021/11/29 08:48:06;;;;;;;16.57;8.93;;;7.20;90.60;;;;;;5114054;28;20023;-83
2021/11/29 08:50:34;;;;;;;15.27;8.23;;;6.90;90.80;;;;;;5113366;28;20030;-82
2021/11/29 08:53:03;;;;;;;20.73;10.63;;;6.50;91.30;;;;;;5113465;28;20020;-83
2021/11/29 08:55:30;;;;;;;16.47;8.67;;;6.10;92.50;;;;;;5114207;28;20024;-82
2021/11/29 08:57:56;;;;;;;24.83;11.17;;;5.80;93.20;;;;;;5094927;28;20045;-83
2021/11/29 09:00:22;;;;;;;18.20;10.07;;;5.70;94.20;;;;;;5113978;28;20024;-82
2021/11/29 09:02:49;;;;;;;16.30;7.43;;;5.70;95.00;;;;;;5112960;28;20440;-83
2021/11/29 09:05:16;;;;;;;18.60;9.40;;;5.70;94.90;;;;;;5114028;28;20106;-82
2021/11/29 09:07:42;;;;;;;15.23;7.40;;;5.70;95.10;;;;;;5113809;28;20042;-83
2021/11/29 09:10:09;;;;;;;14.20;7.43;;;5.60;95.30;;;;;;5114058;28;20028;-81
2021/11/29 09:12:36;;;;;;;14.63;7.27;;;5.50;95.00;;;;;;5112807;28;20348;-83
2021/11/29 09:15:04;;;;;;;18.73;9.73;;;5.40;95.20;;;;;;5113935;28;20016;-80
2021/11/29 09:17:30;;;;;;;17.67;8.77;;;5.50;96.10;;;;;;5114185;28;20036;-81
2021/11/29 09:19:57;;;;;;;13.57;7.27;;;5.70;96.30;;;;;;5096548;28;20482;-80
2021/11/29 09:22:23;;;;;;;16.90;8.43;;;5.70;95.60;;;;;;5112645;28;20039;-80
2021/11/29 09:24:49;;;;;;;16.93;8.43;;;5.70;95.40;;;;;;5113730;28;20031;-81
2021/11/29 09:27:15;;;;;;;13.80;7.53;;;5.70;95.50;;;;;;5112339;28;20028;-80
2021/11/29 09:29:40;;;;;;;21.50;12.30;;;5.60;95.30;;;;;;5112632;28;20036;-80
2021/11/29 09:32:07;;;;;;;15.17;7.20;;;5.60;95.50;;;;;;5078487;28;20036;-79
2021/11/29 09:34:32;;;;;;;12.30;8.07;;;5.50;95.70;;;;;;5096097;28;20438;-80
2021/11/29 09:36:58;;;;;;;14.83;8.23;;;5.50;96.00;;;;;;5112245;28;20139;-80
2021/11/29 09:39:24;;;;;;;20.27;9.67;;;5.50;96.30;;;;;;5113442;28;20486;-78
2021/11/29 09:41:50;;;;;;;17.00;10.13;;;5.60;96.40;;;;;;5096307;28;20028;-78
2021/11/29 09:44:15;;;;;;;15.83;8.60;;;5.80;96.80;;;;;;5095346;28;20023;-78
2021/11/29 09:46:41;;;;;;;20.67;12.23;;;6.00;96.50;;;;;;5078805;28;20098;-78
2021/11/29 09:49:07;;;;;;;14.97;10.17;;;6.20;96.30;;;;;;5112625;28;20106;-79
2021/11/29 09:51:35;;;;;;;17.17;9.17;;;6.20;95.90;;;;;;5113127;28;20066;-81
2021/11/29 09:54:03;;;;;;;12.23;6.70;;;6.40;96.30;;;;;;5097383;28;20024;-80
2021/11/29 09:56:29;;;;;;;16.00;7.57;;;6.80;95.40;;;;;;5114770;28;20023;-79
2021/11/29 09:58:55;;;;;;;12.47;5.37;;;7.10;94.60;;;;;;5113417;28;20463;-78
2021/11/29 10:01:21;;;;;;;13.50;7.27;;;7.00;93.20;;;;;;5113218;28;20036;-80
2021/11/29 10:03:47;;;;;;;11.17;5.20;;;6.90;93.40;;;;;;5112053;28;20056;-79
2021/11/29 10:06:12;;;;;;;14.13;6.93;;;6.90;93.20;;;;;;5111989;28;20028;-80
2021/11/29 10:08:40;;;;;;;13.70;7.03;;;6.80;93.50;;;;;;5113569;28;20459;-79
2021/11/29 10:11:09;;;;;;;10.03;4.87;;;6.70;93.70;;;;;;5115850;28;20125;-79
2021/11/29 10:13:45;;;;;;;8.30;4.73;;;6.60;93.70;;;;;;5117592;28;20027;-79
2021/11/29 10:16:10;;;;;;;12.27;5.70;;;6.60;93.90;;;;;;5117323;28;20022;-79
2021/11/29 10:18:37;;;;;;;14.40;6.20;;;6.50;94.10;;;;;;5118902;28;20406;-79
2021/11/29 10:21:06;;;;;;;12.97;6.30;;;6.50;94.50;;;;;;5116396;28;20031;-80
2021/11/29 10:23:40;;;;;;;11.00;3.70;;;6.40;94.60;;;;;;5117195;28;20030;-79
2021/11/29 10:26:30;;;;;;;9.47;4.13;;;6.50;94.90;;;;;;5120227;28;20050;-80
2021/11/29 10:29:12;;;;;;;12.93;5.57;;;6.50;95.10;;;;;;5117666;28;20019;-80
2021/11/29 10:31:49;;;;;;;13.10;4.73;;;6.70;95.20;;;;;;5115831;28;20023;-80
2021/11/29 10:34:18;;;;;;;11.97;3.67;;;6.80;95.10;;;;;;5115824;28;20068;-80
2021/11/29 10:36:49;;;;;;;9.83;4.43;;;6.80;94.50;;;;;;5116823;28;20058;-80
2021/11/29 10:39:16;;;;;;;9.90;4.10;;;6.80;94.60;;;;;;5116490;28;20027;-81
2021/11/29 10:41:48;;;;;;;9.60;4.27;;;6.80;94.60;;;;;;5116612;28;20065;-80
2021/11/29 10:44:18;;;;;;;17.67;8.90;;;6.70;94.60;;;;;;5117054;28;20049;-81
2021/11/29 10:46:49;;;;;;;12.17;4.03;;;6.60;94.90;;;;;;5116844;28;20356;-81
2021/11/29 10:49:18;;;;;;;11.90;4.53;;;6.70;95.10;;;;;;5115303;28;20099;-80
2021/11/29 10:51:48;;;;;;;14.80;5.87;;;6.80;95.30;;;;;;5115706;28;20036;-81
2021/11/29 10:54:16;;;;;;;12.07;5.90;;;7.00;95.20;;;;;;5115175;28;20024;-80
2021/11/29 10:56:43;;;;;;;9.90;4.97;;;7.20;94.70;;;;;;5114756;28;20380;-80
2021/11/29 10:59:16;;;;;;;8.07;4.70;;;7.30;94.60;;;;;;5115314;28;20032;-81
2021/11/29 11:01:56;;;;;;;14.20;5.95;;;7.30;94.40;;;;;;5114291;28;20118;-81
2021/11/29 11:04:48;;;;;;;14.27;6.73;;;7.30;94.40;;;;;;5124982;28;20464;-80
2021/11/29 11:07:25;;;;;;;9.83;3.33;;;7.40;94.50;;;;;;5122647;28;20023;-80
2021/11/29 11:09:53;;;;;;;8.70;2.60;;;7.40;94.10;;;;;;5123339;28;20028;-80
2021/11/29 11:12:20;;;;;;;6.63;2.97;;;7.40;93.80;;;;;;5121199;28;20026;-81
2021/11/29 11:14:53;;;;;;;9.03;2.57;;;7.40;94.00;;;;;;5103501;28;20035;-82
2021/11/29 11:17:23;;;;;;;8.40;2.67;;;7.40;93.80;;;;;;5119744;28;20024;-82
2021/11/29 11:19:54;;;;;;;8.33;3.00;;;7.30;93.80;;;;;;5118647;28;20080;-83
2021/11/29 11:22:40;;;;;;;8.43;2.30;;;7.30;93.80;;;;;;5121289;27;20023;-80
2021/11/29 11:25:10;;;;;;;11.10;3.30;;;7.20;93.90;;;;;;5103495;28;20380;-81
2021/11/29 11:28:00;;;;;;;10.93;2.50;;;7.10;94.00;;;;;;5120509;28;20028;-81
2021/11/29 11:30:29;;;;;;;6.07;1.73;;;7.00;94.10;;;;;;5121730;28;20027;-82
2021/11/29 11:33:03;;;;;;;8.40;2.03;;;7.10;94.20;;;;;;5119331;28;20019;-80
2021/11/29 11:35:32;;;;;;;7.23;1.80;;;7.00;94.50;;;;;;5120323;28;20081;-81
2021/11/29 11:38:01;;;;;;;6.93;1.43;;;7.00;94.40;;;;;;5120724;28;20089;-83
2021/11/29 11:40:32;;;;;;;7.90;2.40;;;6.90;94.30;;;;;;5121457;27;20026;-81
2021/11/29 11:42:59;;;;;;;10.87;3.30;;;7.00;94.60;;;;;;5119939;28;20114;-81
2021/11/29 11:45:31;;;;;;;8.97;2.20;;;7.00;94.60;;;;;;5118995;28;20447;-81
2021/11/29 11:47:59;;;;;;;11.70;4.83;;;7.10;94.60;;;;;;5117834;28;20023;-83
2021/11/29 11:50:33;;;;;;;8.93;3.30;;;7.00;94.70;;;;;;5118856;28;20032;-81
2021/11/29 11:53:00;;;;;;;10.30;2.63;;;7.10;94.70;;;;;;5118428;28;20015;-82
2021/11/29 11:55:32;;;;;;;7.97;2.87;;;7.20;94.70;;;;;;5100624;28;20035;-81
2021/11/29 11:58:05;;;;;;;8.47;2.33;;;7.20;94.50;;;;;;5118630;28;20020;-81
2021/11/29 12:00:36;;;;;;;8.83;3.37;;;7.10;94.40;;;;;;5119764;28;20028;-80
2021/11/29 12:03:24;;;;;;;8.47;1.73;;;7.20;94.60;;;;;;5121073;28;20039;-82
2021/11/29 12:05:51;;;;;;;6.67;1.80;;;7.30;94.40;;;;;;5120263;28;20102;-82
2021/11/29 12:08:47;;;;;;;5.53;1.90;;;7.30;94.40;;;;;;5119603;28;20024;-81
2021/11/29 12:11:38;;;;;;;7.43;2.00;;;7.40;94.10;;;;;;5103168;28;20035;-83
2021/11/29 12:14:08;;;;;;;11.97;2.80;;;7.50;93.90;;;;;;5121369;28;20030;-83
2021/11/29 12:16:38;;;;;;;9.13;3.37;;;7.50;93.90;;;;;;5120033;28;20083;-82
2021/11/29 12:19:06;;;;;;;7.23;2.37;;;7.70;94.10;;;;;;5119585;28;20023;-82
2021/11/29 12:21:39;;;;;;;8.67;2.80;;;7.80;93.60;;;;;;5120955;28;20030;-82
2021/11/29 12:24:17;;;;;;;9.88;2.63;;;7.80;93.20;;;;;;5119963;28;20028;-83
2021/11/29 12:26:48;;;;;;;10.37;2.30;;;8.00;93.40;;;;;;5120012;28;20039;-82
2021/11/29 12:29:23;;;;;;;6.57;2.40;;;8.30;93.30;;;;;;5119978;28;20031;-82
2021/11/29 12:32:01;;;;;;;6.40;1.90;;;8.60;93.20;;;;;;5120346;28;20034;-81
2021/11/29 12:37:26;;;;;;;6.37;2.77;;;9.00;91.60;;;;;;5117383;28;20051;-82
2021/11/29 12:39:57;;;;;;;7.33;2.13;;;9.20;91.30;;;;;;5116469;28;20060;-82
2021/11/29 12:42:26;;;;;;;10.00;2.67;;;9.30;90.80;;;;;;5114033;28;20035;-82
2021/11/29 12:45:11;;;;;;;8.27;3.43;;;9.20;90.40;;;;;;5113974;28;20024;-81
2021/11/29 12:47:46;;;;;;;9.70;3.43;;;9.20;90.60;;;;;;5113269;28;20097;-81
2021/11/29 12:50:43;;;;;;;5.80;2.77;;;9.10;90.50;;;;;;5112646;28;20028;-82
2021/11/29 12:53:27;;;;;;;7.33;2.63;;;8.90;90.90;;;;;;5113021;28;20401;-82
2021/11/29 12:55:55;;;;;;;6.97;3.93;;;8.70;90.70;;;;;;5113279;28;20023;-82